sensor_id;sensor_type;location;lat;lon;timestamp;P1;durP1;ratioP1;P2;durP2;ratioP2
27543;SDS011;17996;51.056;3.656;2022-11-20T00:00:47;137.15;;;61.08;;
27543;SDS011;17996;51.056;3.656;2022-11-20T00:03:13;136.88;;;61.35;;
27543;SDS011;17996;51.056;3.656;2022-11-20T00:05:39;138.20;;;62.03;;
27543;SDS011;17996;51.056;3.656;2022-11-20T00:08:05;135.00;;;62.78;;
27543;SDS011;17996;51.056;3.656;2022-11-20T00:10:30;145.73;;;63.85;;
27543;SDS011;17996;51.056;3.656;2022-11-20T00:12:57;127.45;;;60.47;;
27543;SDS011;17996;51.056;3.656;2022-11-20T00:15:23;136.32;;;63.38;;
27543;SDS011;17996;51.056;3.656;2022-11-20T00:17:49;148.13;;;66.40;;
27543;SDS011;17996;51.056;3.656;2022-11-20T00:20:15;157.75;;;65.10;;
27543;SDS011;17996;51.056;3.656;2022-11-20T00:22:41;136.52;;;62.40;;
27543;SDS011;17996;51.056;3.656;2022-11-20T00:25:06;151.40;;;63.95;;
27543;SDS011;17996;51.056;3.656;2022-11-20T00:27:32;141.68;;;62.92;;
27543;SDS011;17996;51.056;3.656;2022-11-20T00:29:58;140.48;;;62.10;;
27543;SDS011;17996;51.056;3.656;2022-11-20T00:32:23;131.60;;;58.58;;
27543;SDS011;17996;51.056;3.656;2022-11-20T00:34:49;132.48;;;59.40;;
27543;SDS011;17996;51.056;3.656;2022-11-20T00:37:15;134.70;;;58.78;;
27543;SDS011;17996;51.056;3.656;2022-11-20T00:39:40;116.68;;;58.00;;
27543;SDS011;17996;51.056;3.656;2022-11-20T00:42:06;124.55;;;57.08;;
27543;SDS011;17996;51.056;3.656;2022-11-20T00:44:31;132.48;;;59.03;;
27543;SDS011;17996;51.056;3.656;2022-11-20T00:46:57;129.43;;;57.72;;
27543;SDS011;17996;51.056;3.656;2022-11-20T00:49:23;124.22;;;54.85;;
27543;SDS011;17996;51.056;3.656;2022-11-20T00:51:48;124.18;;;54.45;;
27543;SDS011;17996;51.056;3.656;2022-11-20T00:54:14;125.63;;;55.30;;
27543;SDS011;17996;51.056;3.656;2022-11-20T00:56:39;105.22;;;51.20;;
27543;SDS011;17996;51.056;3.656;2022-11-20T00:59:05;114.82;;;53.88;;
27543;SDS011;17996;51.056;3.656;2022-11-20T01:01:31;124.70;;;54.22;;
27543;SDS011;17996;51.056;3.656;2022-11-20T01:03:59;116.50;;;53.97;;
27543;SDS011;17996;51.056;3.656;2022-11-20T01:06:26;113.45;;;53.47;;
27543;SDS011;17996;51.056;3.656;2022-11-20T01:08:56;127.28;;;55.65;;
27543;SDS011;17996;51.056;3.656;2022-11-20T01:11:24;124.45;;;53.60;;
27543;SDS011;17996;51.056;3.656;2022-11-20T01:13:52;113.50;;;50.30;;
27543;SDS011;17996;51.056;3.656;2022-11-20T01:16:21;118.03;;;53.42;;
27543;SDS011;17996;51.056;3.656;2022-11-20T01:18:50;117.68;;;52.65;;
27543;SDS011;17996;51.056;3.656;2022-11-20T01:21:19;121.00;;;52.13;;
27543;SDS011;17996;51.056;3.656;2022-11-20T01:23:47;106.10;;;50.05;;
27543;SDS011;17996;51.056;3.656;2022-11-20T01:26:14;106.00;;;50.67;;
27543;SDS011;17996;51.056;3.656;2022-11-20T01:28:42;112.78;;;52.80;;
27543;SDS011;17996;51.056;3.656;2022-11-20T01:31:15;111.43;;;51.55;;
27543;SDS011;17996;51.056;3.656;2022-11-20T01:33:46;117.35;;;54.25;;
27543;SDS011;17996;51.056;3.656;2022-11-20T01:36:13;108.78;;;52.38;;
27543;SDS011;17996;51.056;3.656;2022-11-20T01:38:40;114.63;;;54.67;;
27543;SDS011;17996;51.056;3.656;2022-11-20T01:41:06;112.85;;;49.97;;
27543;SDS011;17996;51.056;3.656;2022-11-20T01:43:33;114.20;;;50.85;;
27543;SDS011;17996;51.056;3.656;2022-11-20T01:46:03;110.18;;;51.45;;
27543;SDS011;17996;51.056;3.656;2022-11-20T01:51:03;109.65;;;49.25;;
27543;SDS011;17996;51.056;3.656;2022-11-20T01:53:35;101.32;;;47.80;;
27543;SDS011;17996;51.056;3.656;2022-11-20T01:56:02;104.80;;;46.78;;
27543;SDS011;17996;51.056;3.656;2022-11-20T01:58:32;107.88;;;52.05;;
27543;SDS011;17996;51.056;3.656;2022-11-20T02:01:00;96.80;;;48.78;;
27543;SDS011;17996;51.056;3.656;2022-11-20T02:03:27;96.38;;;45.85;;
27543;SDS011;17996;51.056;3.656;2022-11-20T02:05:59;104.07;;;46.97;;
27543;SDS011;17996;51.056;3.656;2022-11-20T02:08:31;93.40;;;45.67;;
27543;SDS011;17996;51.056;3.656;2022-11-20T02:10:57;93.20;;;44.50;;
27543;SDS011;17996;51.056;3.656;2022-11-20T02:13:23;93.78;;;42.92;;
27543;SDS011;17996;51.056;3.656;2022-11-20T02:16:15;99.60;;;45.80;;
27543;SDS011;17996;51.056;3.656;2022-11-20T02:18:44;91.35;;;44.80;;
27543;SDS011;17996;51.056;3.656;2022-11-20T02:24:17;88.60;;;44.10;;
27543;SDS011;17996;51.056;3.656;2022-11-20T02:26:47;97.53;;;43.75;;
27543;SDS011;17996;51.056;3.656;2022-11-20T02:29:37;85.55;;;44.67;;
27543;SDS011;17996;51.056;3.656;2022-11-20T02:32:21;93.75;;;44.47;;
27543;SDS011;17996;51.056;3.656;2022-11-20T02:34:55;82.22;;;42.47;;
27543;SDS011;17996;51.056;3.656;2022-11-20T02:37:22;88.15;;;45.13;;
27543;SDS011;17996;51.056;3.656;2022-11-20T02:39:49;96.22;;;45.40;;
27543;SDS011;17996;51.056;3.656;2022-11-20T02:42:18;88.63;;;44.40;;
27543;SDS011;17996;51.056;3.656;2022-11-20T02:44:44;91.72;;;44.83;;
27543;SDS011;17996;51.056;3.656;2022-11-20T02:47:10;87.03;;;42.40;;
27543;SDS011;17996;51.056;3.656;2022-11-20T02:49:35;88.35;;;42.22;;
27543;SDS011;17996;51.056;3.656;2022-11-20T02:52:01;88.07;;;41.65;;
27543;SDS011;17996;51.056;3.656;2022-11-20T02:54:27;88.38;;;42.35;;
27543;SDS011;17996;51.056;3.656;2022-11-20T02:56:52;85.03;;;42.70;;
27543;SDS011;17996;51.056;3.656;2022-11-20T02:59:18;93.05;;;44.47;;
27543;SDS011;17996;51.056;3.656;2022-11-20T03:01:44;84.25;;;42.15;;
27543;SDS011;17996;51.056;3.656;2022-11-20T03:04:11;89.28;;;43.35;;
27543;SDS011;17996;51.056;3.656;2022-11-20T03:06:36;83.40;;;40.42;;
27543;SDS011;17996;51.056;3.656;2022-11-20T03:09:02;89.88;;;41.65;;
27543;SDS011;17996;51.056;3.656;2022-11-20T03:11:28;85.18;;;42.40;;
27543;SDS011;17996;51.056;3.656;2022-11-20T03:13:53;86.65;;;40.83;;
27543;SDS011;17996;51.056;3.656;2022-11-20T03:16:20;79.78;;;40.08;;
27543;SDS011;17996;51.056;3.656;2022-11-20T03:18:47;80.10;;;38.58;;
27543;SDS011;17996;51.056;3.656;2022-11-20T03:21:19;92.22;;;43.15;;
27543;SDS011;17996;51.056;3.656;2022-11-20T03:23:44;86.57;;;39.97;;
27543;SDS011;17996;51.056;3.656;2022-11-20T03:26:20;88.50;;;41.72;;
27543;SDS011;17996;51.056;3.656;2022-11-20T03:28:49;82.00;;;40.97;;
27543;SDS011;17996;51.056;3.656;2022-11-20T03:31:16;89.38;;;43.72;;
27543;SDS011;17996;51.056;3.656;2022-11-20T03:33:44;82.68;;;40.70;;
27543;SDS011;17996;51.056;3.656;2022-11-20T03:36:11;87.10;;;41.20;;
27543;SDS011;17996;51.056;3.656;2022-11-20T03:38:38;93.72;;;44.75;;
27543;SDS011;17996;51.056;3.656;2022-11-20T03:41:07;94.13;;;43.95;;
27543;SDS011;17996;51.056;3.656;2022-11-20T03:43:39;95.47;;;44.58;;
27543;SDS011;17996;51.056;3.656;2022-11-20T03:46:05;83.78;;;41.35;;
27543;SDS011;17996;51.056;3.656;2022-11-20T03:48:32;87.20;;;41.08;;
27543;SDS011;17996;51.056;3.656;2022-11-20T03:51:09;91.30;;;42.20;;
27543;SDS011;17996;51.056;3.656;2022-11-20T03:53:37;91.40;;;41.70;;
27543;SDS011;17996;51.056;3.656;2022-11-20T03:56:03;81.45;;;39.28;;
27543;SDS011;17996;51.056;3.656;2022-11-20T03:58:30;85.55;;;40.08;;
27543;SDS011;17996;51.056;3.656;2022-11-20T04:00:56;86.13;;;41.58;;
27543;SDS011;17996;51.056;3.656;2022-11-20T04:03:21;93.18;;;44.20;;
27543;SDS011;17996;51.056;3.656;2022-11-20T04:05:47;99.63;;;43.65;;
27543;SDS011;17996;51.056;3.656;2022-11-20T04:08:12;88.68;;;40.05;;
27543;SDS011;17996;51.056;3.656;2022-11-20T04:10:38;80.18;;;40.70;;
27543;SDS011;17996;51.056;3.656;2022-11-20T04:13:05;91.72;;;41.28;;
27543;SDS011;17996;51.056;3.656;2022-11-20T04:15:30;89.90;;;41.30;;
27543;SDS011;17996;51.056;3.656;2022-11-20T04:17:56;96.03;;;42.95;;
27543;SDS011;17996;51.056;3.656;2022-11-20T04:20:22;92.05;;;44.70;;
27543;SDS011;17996;51.056;3.656;2022-11-20T04:22:48;90.32;;;43.08;;
27543;SDS011;17996;51.056;3.656;2022-11-20T04:25:13;88.10;;;41.60;;
27543;SDS011;17996;51.056;3.656;2022-11-20T04:27:39;83.30;;;40.45;;
27543;SDS011;17996;51.056;3.656;2022-11-20T04:30:05;81.25;;;40.80;;
27543;SDS011;17996;51.056;3.656;2022-11-20T04:32:32;90.18;;;42.03;;
27543;SDS011;17996;51.056;3.656;2022-11-20T04:34:57;100.60;;;41.35;;
27543;SDS011;17996;51.056;3.656;2022-11-20T04:37:23;82.45;;;39.97;;
27543;SDS011;17996;51.056;3.656;2022-11-20T04:39:48;90.90;;;40.88;;
27543;SDS011;17996;51.056;3.656;2022-11-20T04:42:14;83.88;;;40.08;;
27543;SDS011;17996;51.056;3.656;2022-11-20T04:44:55;87.05;;;41.25;;
27543;SDS011;17996;51.056;3.656;2022-11-20T04:47:20;95.78;;;40.70;;
27543;SDS011;17996;51.056;3.656;2022-11-20T04:49:46;89.43;;;43.00;;
27543;SDS011;17996;51.056;3.656;2022-11-20T04:52:12;90.22;;;42.08;;
27543;SDS011;17996;51.056;3.656;2022-11-20T04:54:38;95.25;;;41.17;;
27543;SDS011;17996;51.056;3.656;2022-11-20T04:57:05;93.97;;;41.72;;
27543;SDS011;17996;51.056;3.656;2022-11-20T04:59:31;100.60;;;44.92;;
27543;SDS011;17996;51.056;3.656;2022-11-20T05:01:56;100.32;;;43.80;;
27543;SDS011;17996;51.056;3.656;2022-11-20T05:04:22;122.68;;;45.92;;
27543;SDS011;17996;51.056;3.656;2022-11-20T05:06:50;105.55;;;45.97;;
27543;SDS011;17996;51.056;3.656;2022-11-20T05:09:15;91.50;;;45.83;;
27543;SDS011;17996;51.056;3.656;2022-11-20T05:11:41;118.30;;;48.22;;
27543;SDS011;17996;51.056;3.656;2022-11-20T05:14:07;104.57;;;45.22;;
27543;SDS011;17996;51.056;3.656;2022-11-20T05:16:34;120.97;;;50.97;;
27543;SDS011;17996;51.056;3.656;2022-11-20T05:19:01;107.70;;;47.13;;
27543;SDS011;17996;51.056;3.656;2022-11-20T05:21:26;119.30;;;47.60;;
27543;SDS011;17996;51.056;3.656;2022-11-20T05:23:53;117.35;;;45.95;;
27543;SDS011;17996;51.056;3.656;2022-11-20T05:26:20;121.35;;;48.33;;
27543;SDS011;17996;51.056;3.656;2022-11-20T05:28:47;118.35;;;45.60;;
27543;SDS011;17996;51.056;3.656;2022-11-20T05:31:14;112.43;;;46.30;;
27543;SDS011;17996;51.056;3.656;2022-11-20T05:33:42;122.80;;;49.58;;
27543;SDS011;17996;51.056;3.656;2022-11-20T05:36:10;134.77;;;51.63;;
27543;SDS011;17996;51.056;3.656;2022-11-20T05:38:37;127.60;;;48.92;;
27543;SDS011;17996;51.056;3.656;2022-11-20T05:41:07;129.63;;;49.22;;
27543;SDS011;17996;51.056;3.656;2022-11-20T05:43:38;124.07;;;50.20;;
27543;SDS011;17996;51.056;3.656;2022-11-20T05:46:05;131.82;;;51.03;;
27543;SDS011;17996;51.056;3.656;2022-11-20T05:48:32;124.32;;;50.53;;
27543;SDS011;17996;51.056;3.656;2022-11-20T05:50:58;117.15;;;48.47;;
27543;SDS011;17996;51.056;3.656;2022-11-20T05:53:25;113.70;;;48.22;;
27543;SDS011;17996;51.056;3.656;2022-11-20T05:56:10;127.60;;;49.35;;
27543;SDS011;17996;51.056;3.656;2022-11-20T05:58:40;111.47;;;45.90;;
27543;SDS011;17996;51.056;3.656;2022-11-20T06:01:07;118.00;;;47.10;;
27543;SDS011;17996;51.056;3.656;2022-11-20T06:03:33;115.82;;;49.83;;
27543;SDS011;17996;51.056;3.656;2022-11-20T06:05:59;119.70;;;46.47;;
27543;SDS011;17996;51.056;3.656;2022-11-20T06:08:25;117.45;;;47.33;;
27543;SDS011;17996;51.056;3.656;2022-11-20T06:10:51;113.28;;;46.50;;
27543;SDS011;17996;51.056;3.656;2022-11-20T06:13:17;112.53;;;46.55;;
27543;SDS011;17996;51.056;3.656;2022-11-20T06:15:47;116.90;;;46.70;;
27543;SDS011;17996;51.056;3.656;2022-11-20T06:18:17;103.40;;;45.05;;
27543;SDS011;17996;51.056;3.656;2022-11-20T06:20:43;111.00;;;44.65;;
27543;SDS011;17996;51.056;3.656;2022-11-20T06:23:09;111.75;;;46.03;;
27543;SDS011;17996;51.056;3.656;2022-11-20T06:25:41;100.22;;;43.20;;
27543;SDS011;17996;51.056;3.656;2022-11-20T06:28:07;102.07;;;42.47;;
27543;SDS011;17996;51.056;3.656;2022-11-20T06:30:34;113.60;;;46.45;;
27543;SDS011;17996;51.056;3.656;2022-11-20T06:33:00;111.15;;;45.00;;
27543;SDS011;17996;51.056;3.656;2022-11-20T06:35:25;102.15;;;44.95;;
27543;SDS011;17996;51.056;3.656;2022-11-20T06:37:51;99.00;;;41.85;;
27543;SDS011;17996;51.056;3.656;2022-11-20T06:40:17;112.00;;;47.38;;
27543;SDS011;17996;51.056;3.656;2022-11-20T06:42:42;101.10;;;42.90;;
27543;SDS011;17996;51.056;3.656;2022-11-20T06:45:08;106.30;;;43.10;;
27543;SDS011;17996;51.056;3.656;2022-11-20T06:47:34;99.10;;;44.22;;
27543;SDS011;17996;51.056;3.656;2022-11-20T06:50:00;100.20;;;43.03;;
27543;SDS011;17996;51.056;3.656;2022-11-20T06:52:27;102.22;;;42.47;;
27543;SDS011;17996;51.056;3.656;2022-11-20T06:54:52;101.45;;;42.50;;
27543;SDS011;17996;51.056;3.656;2022-11-20T06:57:18;98.53;;;41.42;;
27543;SDS011;17996;51.056;3.656;2022-11-20T06:59:44;93.55;;;40.78;;
27543;SDS011;17996;51.056;3.656;2022-11-20T07:02:11;90.93;;;41.10;;
27543;SDS011;17996;51.056;3.656;2022-11-20T07:04:37;95.82;;;41.35;;
27543;SDS011;17996;51.056;3.656;2022-11-20T07:07:03;93.93;;;40.40;;
27543;SDS011;17996;51.056;3.656;2022-11-20T07:09:29;102.93;;;40.92;;
27543;SDS011;17996;51.056;3.656;2022-11-20T07:11:54;101.93;;;41.78;;
27543;SDS011;17996;51.056;3.656;2022-11-20T07:14:20;95.18;;;40.63;;
27543;SDS011;17996;51.056;3.656;2022-11-20T07:16:45;93.38;;;41.63;;
27543;SDS011;17996;51.056;3.656;2022-11-20T07:19:11;93.60;;;40.40;;
27543;SDS011;17996;51.056;3.656;2022-11-20T07:21:37;101.90;;;42.03;;
27543;SDS011;17996;51.056;3.656;2022-11-20T07:24:02;106.15;;;44.28;;
27543;SDS011;17996;51.056;3.656;2022-11-20T07:26:28;99.60;;;41.70;;
27543;SDS011;17996;51.056;3.656;2022-11-20T07:28:54;108.53;;;45.33;;
27543;SDS011;17996;51.056;3.656;2022-11-20T07:31:19;109.60;;;42.88;;
27543;SDS011;17996;51.056;3.656;2022-11-20T07:33:45;110.63;;;42.92;;
27543;SDS011;17996;51.056;3.656;2022-11-20T07:36:11;116.93;;;44.47;;
27543;SDS011;17996;51.056;3.656;2022-11-20T07:38:37;105.07;;;42.83;;
27543;SDS011;17996;51.056;3.656;2022-11-20T07:41:03;121.60;;;43.90;;
27543;SDS011;17996;51.056;3.656;2022-11-20T07:43:29;113.78;;;42.20;;
27543;SDS011;17996;51.056;3.656;2022-11-20T07:45:55;101.72;;;42.13;;
27543;SDS011;17996;51.056;3.656;2022-11-20T07:48:22;102.05;;;42.47;;
27543;SDS011;17996;51.056;3.656;2022-11-20T07:50:48;109.72;;;43.92;;
27543;SDS011;17996;51.056;3.656;2022-11-20T07:53:14;104.32;;;42.20;;
27543;SDS011;17996;51.056;3.656;2022-11-20T07:55:45;114.68;;;42.55;;
27543;SDS011;17996;51.056;3.656;2022-11-20T07:58:11;111.57;;;41.83;;
27543;SDS011;17996;51.056;3.656;2022-11-20T08:00:37;109.35;;;43.80;;
27543;SDS011;17996;51.056;3.656;2022-11-20T08:03:03;108.28;;;40.78;;
27543;SDS011;17996;51.056;3.656;2022-11-20T08:05:29;95.40;;;39.58;;
27543;SDS011;17996;51.056;3.656;2022-11-20T08:07:55;114.07;;;41.25;;
27543;SDS011;17996;51.056;3.656;2022-11-20T08:10:20;106.85;;;40.75;;
27543;SDS011;17996;51.056;3.656;2022-11-20T08:12:48;107.00;;;43.45;;
27543;SDS011;17996;51.056;3.656;2022-11-20T08:15:34;108.38;;;41.90;;
27543;SDS011;17996;51.056;3.656;2022-11-20T08:18:01;106.25;;;41.65;;
27543;SDS011;17996;51.056;3.656;2022-11-20T08:20:30;125.93;;;46.03;;
27543;SDS011;17996;51.056;3.656;2022-11-20T08:23:00;110.82;;;42.78;;
27543;SDS011;17996;51.056;3.656;2022-11-20T08:25:28;106.32;;;43.95;;
27543;SDS011;17996;51.056;3.656;2022-11-20T08:27:56;123.45;;;45.78;;
27543;SDS011;17996;51.056;3.656;2022-11-20T08:30:23;112.93;;;43.83;;
27543;SDS011;17996;51.056;3.656;2022-11-20T08:32:49;113.47;;;43.58;;
27543;SDS011;17996;51.056;3.656;2022-11-20T08:35:14;124.97;;;44.38;;
27543;SDS011;17996;51.056;3.656;2022-11-20T08:37:40;117.30;;;44.67;;
27543;SDS011;17996;51.056;3.656;2022-11-20T08:40:07;123.95;;;46.47;;
27543;SDS011;17996;51.056;3.656;2022-11-20T08:42:35;117.00;;;44.33;;
27543;SDS011;17996;51.056;3.656;2022-11-20T08:45:00;120.30;;;44.78;;
27543;SDS011;17996;51.056;3.656;2022-11-20T08:47:26;107.90;;;42.45;;
27543;SDS011;17996;51.056;3.656;2022-11-20T08:49:52;111.97;;;45.00;;
27543;SDS011;17996;51.056;3.656;2022-11-20T08:52:17;107.35;;;41.63;;
27543;SDS011;17996;51.056;3.656;2022-11-20T08:54:43;112.70;;;44.58;;
27543;SDS011;17996;51.056;3.656;2022-11-20T08:57:08;108.68;;;42.47;;
27543;SDS011;17996;51.056;3.656;2022-11-20T08:59:34;108.55;;;41.83;;
27543;SDS011;17996;51.056;3.656;2022-11-20T09:02:01;107.85;;;41.65;;
27543;SDS011;17996;51.056;3.656;2022-11-20T09:04:26;104.95;;;42.45;;
27543;SDS011;17996;51.056;3.656;2022-11-20T09:06:52;106.38;;;42.75;;
27543;SDS011;17996;51.056;3.656;2022-11-20T09:09:18;100.57;;;40.88;;
27543;SDS011;17996;51.056;3.656;2022-11-20T09:11:43;104.93;;;43.25;;
27543;SDS011;17996;51.056;3.656;2022-11-20T09:14:11;115.80;;;43.03;;
27543;SDS011;17996;51.056;3.656;2022-11-20T09:16:38;93.15;;;40.00;;
27543;SDS011;17996;51.056;3.656;2022-11-20T09:19:04;93.38;;;40.83;;
27543;SDS011;17996;51.056;3.656;2022-11-20T09:21:30;95.75;;;37.83;;
27543;SDS011;17996;51.056;3.656;2022-11-20T09:23:56;88.10;;;36.67;;
27543;SDS011;17996;51.056;3.656;2022-11-20T09:26:21;87.75;;;37.03;;
27543;SDS011;17996;51.056;3.656;2022-11-20T09:28:47;90.50;;;35.75;;
27543;SDS011;17996;51.056;3.656;2022-11-20T09:31:22;77.95;;;33.40;;
27543;SDS011;17996;51.056;3.656;2022-11-20T09:33:50;70.35;;;34.85;;
27543;SDS011;17996;51.056;3.656;2022-11-20T09:36:16;75.93;;;32.85;;
27543;SDS011;17996;51.056;3.656;2022-11-20T09:38:43;73.22;;;32.42;;
27543;SDS011;17996;51.056;3.656;2022-11-20T09:44:31;74.32;;;32.00;;
27543;SDS011;17996;51.056;3.656;2022-11-20T09:47:07;69.82;;;32.30;;
27543;SDS011;17996;51.056;3.656;2022-11-20T09:49:57;58.08;;;30.55;;
27543;SDS011;17996;51.056;3.656;2022-11-20T09:55:37;59.03;;;29.17;;
27543;SDS011;17996;51.056;3.656;2022-11-20T09:58:05;56.00;;;28.23;;
27543;SDS011;17996;51.056;3.656;2022-11-20T10:03:26;55.83;;;26.50;;
27543;SDS011;17996;51.056;3.656;2022-11-20T10:06:04;53.17;;;27.05;;
27543;SDS011;17996;51.056;3.656;2022-11-20T10:08:41;51.15;;;25.13;;
27543;SDS011;17996;51.056;3.656;2022-11-20T10:11:46;44.38;;;23.10;;
27543;SDS011;17996;51.056;3.656;2022-11-20T10:14:51;52.15;;;23.10;;
27543;SDS011;17996;51.056;3.656;2022-11-20T10:20:17;52.85;;;20.65;;
27543;SDS011;17996;51.056;3.656;2022-11-20T10:23:03;39.25;;;19.67;;
27543;SDS011;17996;51.056;3.656;2022-11-20T10:28:10;43.80;;;19.23;;
27543;SDS011;17996;51.056;3.656;2022-11-20T10:31:02;31.33;;;14.35;;
27543;SDS011;17996;51.056;3.656;2022-11-20T10:33:39;32.10;;;16.80;;
27543;SDS011;17996;51.056;3.656;2022-11-20T10:36:12;35.35;;;15.02;;
27543;SDS011;17996;51.056;3.656;2022-11-20T10:39:10;31.50;;;13.63;;
27543;SDS011;17996;51.056;3.656;2022-11-20T10:41:43;24.33;;;10.65;;
27543;SDS011;17996;51.056;3.656;2022-11-20T10:44:17;21.55;;;10.32;;
27543;SDS011;17996;51.056;3.656;2022-11-20T10:47:11;24.05;;;10.77;;
27543;SDS011;17996;51.056;3.656;2022-11-20T10:49:46;22.75;;;10.40;;
27543;SDS011;17996;51.056;3.656;2022-11-20T10:54:48;18.80;;;7.95;;
27543;SDS011;17996;51.056;3.656;2022-11-20T11:00:24;19.00;;;8.57;;
27543;SDS011;17996;51.056;3.656;2022-11-20T11:05:25;21.02;;;6.72;;
27543;SDS011;17996;51.056;3.656;2022-11-20T11:08:10;17.50;;;6.88;;
27543;SDS011;17996;51.056;3.656;2022-11-20T11:10:46;18.92;;;7.43;;
27543;SDS011;17996;51.056;3.656;2022-11-20T11:13:22;12.70;;;6.82;;
27543;SDS011;17996;51.056;3.656;2022-11-20T11:15:50;15.02;;;6.68;;
27543;SDS011;17996;51.056;3.656;2022-11-20T11:18:26;16.30;;;6.05;;
27543;SDS011;17996;51.056;3.656;2022-11-20T11:20:57;13.10;;;6.13;;
27543;SDS011;17996;51.056;3.656;2022-11-20T11:26:02;17.48;;;5.88;;
27543;SDS011;17996;51.056;3.656;2022-11-20T11:28:29;10.43;;;5.43;;
27543;SDS011;17996;51.056;3.656;2022-11-20T11:30:55;14.10;;;5.18;;
27543;SDS011;17996;51.056;3.656;2022-11-20T11:33:25;10.07;;;4.80;;
27543;SDS011;17996;51.056;3.656;2022-11-20T11:35:53;13.80;;;4.65;;
27543;SDS011;17996;51.056;3.656;2022-11-20T11:38:36;12.88;;;4.15;;
27543;SDS011;17996;51.056;3.656;2022-11-20T11:41:04;12.32;;;4.93;;
27543;SDS011;17996;51.056;3.656;2022-11-20T11:43:33;12.20;;;6.10;;
27543;SDS011;17996;51.056;3.656;2022-11-20T11:46:24;15.13;;;8.05;;
27543;SDS011;17996;51.056;3.656;2022-11-20T11:54:42;13.95;;;5.20;;
27543;SDS011;17996;51.056;3.656;2022-11-20T11:59:54;16.02;;;5.75;;
27543;SDS011;17996;51.056;3.656;2022-11-20T12:13:12;14.80;;;7.05;;
27543;SDS011;17996;51.056;3.656;2022-11-20T12:15:51;16.17;;;6.53;;
27543;SDS011;17996;51.056;3.656;2022-11-20T12:18:18;20.55;;;6.75;;
27543;SDS011;17996;51.056;3.656;2022-11-20T12:21:10;12.35;;;6.20;;
27543;SDS011;17996;51.056;3.656;2022-11-20T12:46:18;13.30;;;7.18;;
27543;SDS011;17996;51.056;3.656;2022-11-20T12:49:05;16.35;;;7.32;;
27543;SDS011;17996;51.056;3.656;2022-11-20T12:51:48;11.23;;;7.03;;
27543;SDS011;17996;51.056;3.656;2022-11-20T13:05:07;10.35;;;6.07;;
27543;SDS011;17996;51.056;3.656;2022-11-20T13:07:43;8.68;;;6.53;;
27543;SDS011;17996;51.056;3.656;2022-11-20T13:10:14;11.02;;;6.03;;
27543;SDS011;17996;51.056;3.656;2022-11-20T13:12:47;14.80;;;5.97;;
27543;SDS011;17996;51.056;3.656;2022-11-20T13:18:08;12.18;;;4.95;;
27543;SDS011;17996;51.056;3.656;2022-11-20T13:20:35;10.27;;;6.20;;
27543;SDS011;17996;51.056;3.656;2022-11-20T13:23:05;10.68;;;4.65;;
27543;SDS011;17996;51.056;3.656;2022-11-20T13:25:35;9.27;;;5.57;;
27543;SDS011;17996;51.056;3.656;2022-11-20T13:28:26;10.63;;;5.85;;
27543;SDS011;17996;51.056;3.656;2022-11-20T13:30:55;8.45;;;5.82;;
27543;SDS011;17996;51.056;3.656;2022-11-20T13:35:58;7.72;;;5.18;;
27543;SDS011;17996;51.056;3.656;2022-11-20T13:38:39;5.80;;;4.38;;
27543;SDS011;17996;51.056;3.656;2022-11-20T13:41:11;6.40;;;4.55;;
27543;SDS011;17996;51.056;3.656;2022-11-20T13:43:54;6.47;;;4.32;;
27543;SDS011;17996;51.056;3.656;2022-11-20T13:46:23;7.85;;;4.75;;
27543;SDS011;17996;51.056;3.656;2022-11-20T13:48:59;12.82;;;7.90;;
27543;SDS011;17996;51.056;3.656;2022-11-20T14:00:30;8.73;;;4.45;;
27543;SDS011;17996;51.056;3.656;2022-11-20T14:05:31;9.50;;;5.18;;
27543;SDS011;17996;51.056;3.656;2022-11-20T14:08:05;5.43;;;4.50;;
27543;SDS011;17996;51.056;3.656;2022-11-20T14:10:37;5.70;;;4.30;;
27543;SDS011;17996;51.056;3.656;2022-11-20T14:13:12;6.88;;;4.25;;
27543;SDS011;17996;51.056;3.656;2022-11-20T14:15:44;7.57;;;4.32;;
27543;SDS011;17996;51.056;3.656;2022-11-20T14:18:14;9.02;;;4.40;;
27543;SDS011;17996;51.056;3.656;2022-11-20T14:20:44;7.05;;;4.35;;
27543;SDS011;17996;51.056;3.656;2022-11-20T14:23:10;6.60;;;4.20;;
27543;SDS011;17996;51.056;3.656;2022-11-20T14:25:36;6.85;;;4.75;;
27543;SDS011;17996;51.056;3.656;2022-11-20T14:28:10;7.55;;;5.10;;
27543;SDS011;17996;51.056;3.656;2022-11-20T14:30:44;7.75;;;4.13;;
27543;SDS011;17996;51.056;3.656;2022-11-20T14:33:12;10.43;;;4.80;;
27543;SDS011;17996;51.056;3.656;2022-11-20T14:35:45;7.28;;;5.32;;
27543;SDS011;17996;51.056;3.656;2022-11-20T14:38:14;7.97;;;5.03;;
27543;SDS011;17996;51.056;3.656;2022-11-20T14:40:43;8.75;;;4.70;;
27543;SDS011;17996;51.056;3.656;2022-11-20T14:43:16;13.73;;;4.70;;
27543;SDS011;17996;51.056;3.656;2022-11-20T14:45:43;10.93;;;4.70;;
27543;SDS011;17996;51.056;3.656;2022-11-20T14:48:22;11.50;;;4.18;;
27543;SDS011;17996;51.056;3.656;2022-11-20T14:50:54;15.18;;;4.18;;
27543;SDS011;17996;51.056;3.656;2022-11-20T14:53:23;14.68;;;3.75;;
27543;SDS011;17996;51.056;3.656;2022-11-20T14:55:57;14.68;;;3.90;;
27543;SDS011;17996;51.056;3.656;2022-11-20T14:58:25;10.88;;;3.92;;
27543;SDS011;17996;51.056;3.656;2022-11-20T15:05:59;31.92;;;4.57;;
27543;SDS011;17996;51.056;3.656;2022-11-20T15:08:24;15.35;;;4.13;;
27543;SDS011;17996;51.056;3.656;2022-11-20T15:10:51;32.47;;;5.38;;
27543;SDS011;17996;51.056;3.656;2022-11-20T15:15:58;26.30;;;4.68;;
27543;SDS011;17996;51.056;3.656;2022-11-20T15:18:32;23.90;;;3.80;;
27543;SDS011;17996;51.056;3.656;2022-11-20T15:21:03;21.95;;;4.10;;
27543;SDS011;17996;51.056;3.656;2022-11-20T15:23:34;26.10;;;4.50;;
27543;SDS011;17996;51.056;3.656;2022-11-20T15:26:00;29.13;;;4.82;;
27543;SDS011;17996;51.056;3.656;2022-11-20T15:28:28;24.00;;;4.68;;
27543;SDS011;17996;51.056;3.656;2022-11-20T15:30:55;32.70;;;5.70;;
27543;SDS011;17996;51.056;3.656;2022-11-20T15:33:22;24.83;;;4.90;;
27543;SDS011;17996;51.056;3.656;2022-11-20T15:35:47;22.52;;;4.45;;
27543;SDS011;17996;51.056;3.656;2022-11-20T15:38:13;34.75;;;4.35;;
27543;SDS011;17996;51.056;3.656;2022-11-20T15:40:39;33.65;;;6.18;;
27543;SDS011;17996;51.056;3.656;2022-11-20T15:43:05;30.02;;;4.68;;
27543;SDS011;17996;51.056;3.656;2022-11-20T15:45:45;32.20;;;6.35;;
27543;SDS011;17996;51.056;3.656;2022-11-20T15:48:20;30.80;;;4.90;;
27543;SDS011;17996;51.056;3.656;2022-11-20T15:53:21;28.02;;;6.45;;
27543;SDS011;17996;51.056;3.656;2022-11-20T15:55:47;44.72;;;6.68;;
27543;SDS011;17996;51.056;3.656;2022-11-20T15:58:13;22.35;;;5.25;;
27543;SDS011;17996;51.056;3.656;2022-11-20T16:00:39;26.27;;;6.68;;
27543;SDS011;17996;51.056;3.656;2022-11-20T16:03:04;30.42;;;6.63;;
27543;SDS011;17996;51.056;3.656;2022-11-20T16:05:30;49.58;;;8.25;;
27543;SDS011;17996;51.056;3.656;2022-11-20T16:07:56;43.72;;;7.65;;
27543;SDS011;17996;51.056;3.656;2022-11-20T16:10:22;37.45;;;6.45;;
27543;SDS011;17996;51.056;3.656;2022-11-20T16:12:48;31.30;;;7.25;;
27543;SDS011;17996;51.056;3.656;2022-11-20T16:15:32;33.40;;;6.70;;
27543;SDS011;17996;51.056;3.656;2022-11-20T16:18:11;36.03;;;8.05;;
27543;SDS011;17996;51.056;3.656;2022-11-20T16:20:38;37.72;;;6.45;;
27543;SDS011;17996;51.056;3.656;2022-11-20T16:23:05;21.73;;;5.78;;